Time;durP1;ratioP1;P1;durP2;ratioP2;P2;SDS_P1;SDS_P2;PMS_P1;PMS_P2;Temp;Humidity;BMP_temperature;BMP_pressure;BME280_temperature;BME280_humidity;BME280_pressure;Samples;Min_cycle;Max_cycle;Signal;HPM_P1;HPM_P2
2023/04/04 00:01:33;;;;;;;10.63;2.23;;;1.50;99.90;;;;;;5073986;28;20688;-51
2023/04/04 00:03:58;;;;;;;8.77;1.70;;;1.50;99.90;;;;;;5074444;28;20262;-52
2023/04/04 00:06:24;;;;;;;9.17;2.40;;;1.40;99.90;;;;;;5073910;28;20248;-50
2023/04/04 00:08:50;;;;;;;4.27;1.90;;;1.30;99.90;;;;;;5074059;28;20214;-51
2023/04/04 00:11:15;;;;;;;6.40;2.33;;;1.30;99.90;;;;;;5073959;28;20208;-52
2023/04/04 00:13:41;;;;;;;5.73;2.00;;;1.30;99.90;;;;;;5073636;28;20218;-52
2023/04/04 00:16:07;;;;;;;9.33;1.70;;;1.30;99.90;;;;;;5073642;28;20168;-52
2023/04/04 00:18:32;;;;;;;10.83;2.63;;;1.30;99.90;;;;;;5073514;28;20267;-50
2023/04/04 00:20:58;;;;;;;8.47;3.00;;;1.20;99.90;;;;;;5073726;28;20195;-50
2023/04/04 00:23:24;;;;;;;9.77;2.10;;;1.30;99.90;;;;;;5073715;28;20186;-53
2023/04/04 00:25:53;;;;;;;10.03;2.27;;;1.30;99.90;;;;;;5072275;28;20180;-51
2023/04/04 00:28:19;;;;;;;14.33;3.63;;;1.30;99.90;;;;;;5073454;28;20186;-51
2023/04/04 00:30:45;;;;;;;9.60;2.40;;;1.30;99.90;;;;;;5072226;28;20175;-52
2023/04/04 00:33:11;;;;;;;8.53;2.50;;;1.30;99.90;;;;;;5073817;28;20640;-51
2023/04/04 00:35:37;;;;;;;5.97;2.50;;;1.30;99.90;;;;;;5073448;28;20294;-52
2023/04/04 00:38:02;;;;;;;14.17;3.83;;;1.40;99.90;;;;;;5073482;28;20179;-52
2023/04/04 00:40:28;;;;;;;12.13;3.27;;;1.40;99.90;;;;;;5073306;28;20639;-51
2023/04/04 00:42:54;;;;;;;13.80;3.73;;;1.40;99.90;;;;;;5073535;28;20199;-53
2023/04/04 00:45:20;;;;;;;8.93;3.33;;;1.30;99.90;;;;;;5073681;28;20196;-52
2023/04/04 00:47:46;;;;;;;7.90;3.67;;;1.30;99.90;;;;;;5073383;28;20256;-51
2023/04/04 00:50:12;;;;;;;10.70;3.00;;;1.20;99.90;;;;;;5073034;28;20241;-50
2023/04/04 00:52:37;;;;;;;11.17;2.20;;;1.20;99.90;;;;;;5073194;28;20211;-52
2023/04/04 00:55:04;;;;;;;3.30;1.80;;;1.20;99.90;;;;;;5073465;28;20226;-51
2023/04/04 00:57:31;;;;;;;6.43;1.93;;;1.20;99.90;;;;;;5073425;28;20534;-52
2023/04/04 00:59:59;;;;;;;12.70;2.10;;;1.20;99.90;;;;;;5073661;28;20547;-52
2023/04/04 01:02:25;;;;;;;12.30;2.20;;;1.20;99.90;;;;;;5077257;28;20204;-52
2023/04/04 01:04:51;;;;;;;7.90;1.63;;;1.20;99.90;;;;;;5077329;28;20262;-50
2023/04/04 01:07:18;;;;;;;7.87;1.87;;;1.10;99.90;;;;;;5077067;28;20270;-51
2023/04/04 01:09:43;;;;;;;10.17;2.07;;;1.10;99.90;;;;;;5077292;28;20184;-51
2023/04/04 01:12:09;;;;;;;4.93;2.10;;;1.00;99.90;;;;;;5076031;28;20199;-52
2023/04/04 01:14:35;;;;;;;5.60;1.80;;;0.90;99.90;;;;;;5077341;28;20253;-51
2023/04/04 01:17:02;;;;;;;11.47;1.80;;;0.90;99.90;;;;;;5078524;28;20179;-52
2023/04/04 01:19:45;;;;;;;6.47;1.80;;;0.90;99.90;;;;;;5078298;28;20235;-52
2023/04/04 01:22:12;;;;;;;4.50;1.63;;;0.80;99.90;;;;;;5077884;28;20234;-52
2023/04/04 01:24:41;;;;;;;4.30;1.63;;;0.80;99.90;;;;;;5078920;28;20201;-49
2023/04/04 01:27:07;;;;;;;4.97;2.00;;;0.80;99.90;;;;;;5082897;28;20190;-53
2023/04/04 01:29:32;;;;;;;7.40;1.60;;;0.80;99.90;;;;;;5094275;28;20273;-52
2023/04/04 01:32:24;;;;;;;5.13;1.60;;;0.80;99.90;;;;;;5082864;28;20207;-51
2023/04/04 01:35:19;;;;;;;5.27;1.73;;;0.70;99.90;;;;;;5073846;28;20211;-53
2023/04/04 01:37:50;;;;;;;4.40;1.60;;;0.70;99.90;;;;;;5076770;28;20178;-50
2023/04/04 01:40:33;;;;;;;3.27;1.50;;;0.60;99.90;;;;;;5076892;28;20176;-52
2023/04/04 01:42:59;;;;;;;3.27;1.50;;;0.60;99.90;;;;;;5076831;28;20508;-51
2023/04/04 01:45:26;;;;;;;6.90;1.90;;;0.50;99.90;;;;;;5076390;28;20232;-51
2023/04/04 01:47:52;;;;;;;2.67;1.53;;;0.50;99.90;;;;;;5076526;28;20643;-50
2023/04/04 01:50:17;;;;;;;12.53;2.83;;;0.40;99.90;;;;;;5076398;28;20190;-51
2023/04/04 01:52:43;;;;;;;6.63;1.70;;;0.40;99.90;;;;;;5075161;28;20214;-52
2023/04/04 01:55:09;;;;;;;8.17;1.93;;;0.20;99.90;;;;;;5076238;28;20264;-50
2023/04/04 01:57:35;;;;;;;3.73;1.67;;;0.30;99.90;;;;;;5076782;28;20183;-49
2023/04/04 02:00:00;;;;;;;6.50;2.03;;;0.20;99.90;;;;;;5076299;28;20646;-50
2023/04/04 02:02:26;;;;;;;4.17;1.57;;;0.20;99.90;;;;;;5076173;28;20197;-52
2023/04/04 02:04:52;;;;;;;3.97;1.80;;;0.20;99.90;;;;;;5076406;28;20210;-50
2023/04/04 02:07:18;;;;;;;2.37;1.80;;;0.20;99.90;;;;;;5076039;28;20187;-50
2023/04/04 02:09:44;;;;;;;3.50;1.60;;;0.10;99.90;;;;;;5076316;28;20205;-50
2023/04/04 02:12:09;;;;;;;7.77;2.07;;;0.10;99.90;;;;;;5075758;28;20207;-51
2023/04/04 02:14:35;;;;;;;4.10;1.83;;;0.10;99.90;;;;;;5075630;28;20313;-50
2023/04/04 02:17:00;;;;;;;5.13;1.60;;;0.10;99.90;;;;;;5076202;28;20254;-49
2023/04/04 02:19:26;;;;;;;5.67;1.63;;;0.00;99.90;;;;;;5076319;28;20185;-50
2023/04/04 02:21:51;;;;;;;4.93;1.70;;;0.00;99.90;;;;;;5075597;28;20278;-50
2023/04/04 02:24:17;;;;;;;3.00;1.70;;;0.00;99.90;;;;;;5075930;28;20182;-49
2023/04/04 02:26:43;;;;;;;4.30;1.80;;;0.00;99.90;;;;;;5075627;28;20260;-48
2023/04/04 02:29:08;;;;;;;4.60;1.60;;;0.00;99.90;;;;;;5075550;28;20183;-50
2023/04/04 02:31:34;;;;;;;3.07;1.60;;;0.00;99.90;;;;;;5075777;28;20198;-51
2023/04/04 02:34:00;;;;;;;2.73;1.60;;;0.00;99.90;;;;;;5075674;28;20202;-50
2023/04/04 02:36:26;;;;;;;5.13;2.07;;;0.00;99.90;;;;;;5075728;28;20260;-51
2023/04/04 02:38:51;;;;;;;2.67;1.50;;;0.00;99.90;;;;;;5075587;28;20675;-50
2023/04/04 02:41:18;;;;;;;3.07;1.53;;;0.00;99.90;;;;;;5075178;28;20429;-51
2023/04/04 02:43:43;;;;;;;4.43;1.60;;;-0.10;99.90;;;;;;5075614;28;20638;-50
2023/04/04 02:46:09;;;;;;;3.53;1.60;;;-0.10;99.90;;;;;;5075331;28;20409;-51
2023/04/04 02:48:35;;;;;;;3.93;1.90;;;-0.10;99.90;;;;;;5075265;28;20186;-52
2023/04/04 02:51:00;;;;;;;2.73;1.53;;;-0.20;99.90;;;;;;5075059;28;20700;-52
2023/04/04 02:53:27;;;;;;;3.80;1.43;;;-0.20;99.90;;;;;;5075461;28;20213;-50
2023/04/04 02:55:52;;;;;;;2.80;1.60;;;-0.20;99.90;;;;;;5075082;28;20183;-50
2023/04/04 02:58:18;;;;;;;3.87;1.43;;;-0.30;99.90;;;;;;5075562;28;20841;-51
2023/04/04 03:00:45;;;;;;;3.60;1.93;;;-0.30;99.90;;;;;;5075225;28;20178;-52
2023/04/04 03:03:11;;;;;;;2.60;1.67;;;-0.30;99.90;;;;;;5074936;28;20669;-52
2023/04/04 03:05:37;;;;;;;5.20;1.70;;;-0.30;99.90;;;;;;5075359;28;20416;-51
2023/04/04 03:08:03;;;;;;;6.53;1.67;;;-0.30;99.90;;;;;;5074895;28;20657;-50
2023/04/04 03:10:29;;;;;;;6.97;1.70;;;-0.20;99.90;;;;;;5075320;28;20601;-50
2023/04/04 03:12:55;;;;;;;2.03;1.60;;;-0.20;99.90;;;;;;5074769;28;20440;-50
2023/04/04 03:15:21;;;;;;;5.30;1.50;;;-0.10;99.90;;;;;;5075566;28;20218;-50
2023/04/04 03:17:46;;;;;;;1.90;1.60;;;-0.20;99.90;;;;;;5074875;28;20783;-52
2023/04/04 03:20:13;;;;;;;3.60;1.60;;;-0.20;99.90;;;;;;5074783;28;20660;-50
2023/04/04 03:22:40;;;;;;;4.23;1.47;;;-0.30;99.90;;;;;;5074477;28;20205;-49
2023/04/04 03:25:06;;;;;;;3.30;1.50;;;-0.30;99.90;;;;;;5073872;28;20412;-51
2023/04/04 03:27:31;;;;;;;3.47;1.70;;;-0.30;99.90;;;;;;5074908;28;20261;-50
2023/04/04 03:29:58;;;;;;;4.90;1.67;;;-0.40;99.90;;;;;;5074757;28;20194;-51
2023/04/04 03:32:24;;;;;;;8.03;1.67;;;-0.40;99.90;;;;;;5074716;28;20201;-50
2023/04/04 03:34:50;;;;;;;4.57;1.70;;;-0.40;99.90;;;;;;5074606;28;20513;-51
2023/04/04 03:37:16;;;;;;;3.90;2.37;;;-0.40;99.90;;;;;;5074727;28;20416;-50
2023/04/04 03:39:42;;;;;;;3.97;2.00;;;-0.30;99.90;;;;;;5074922;28;20419;-50
2023/04/04 03:42:08;;;;;;;13.00;5.03;;;-0.20;99.90;;;;;;5089916;28;20451;-51
2023/04/04 03:44:35;;;;;;;9.40;4.07;;;-0.20;99.90;;;;;;5074273;28;20253;-49
2023/04/04 03:47:01;;;;;;;14.37;2.97;;;-0.20;99.90;;;;;;5074437;28;20275;-49
2023/04/04 03:49:26;;;;;;;16.07;2.50;;;-0.10;99.90;;;;;;5074140;28;20443;-49
2023/04/04 03:51:52;;;;;;;11.70;2.90;;;-0.20;99.90;;;;;;5074008;28;20285;-50
2023/04/04 03:54:18;;;;;;;7.67;2.47;;;-0.20;99.90;;;;;;5074221;28;20232;-50
2023/04/04 03:56:43;;;;;;;7.27;2.47;;;-0.20;99.90;;;;;;5091647;22;20228;-44
2023/04/04 03:59:09;;;;;;;14.97;2.60;;;-0.20;99.90;;;;;;5073804;28;20169;-44
2023/04/04 04:01:35;;;;;;;7.10;2.80;;;-0.20;99.90;;;;;;5073968;28;20669;-40
2023/04/04 04:04:00;;;;;;;5.23;2.13;;;-0.30;99.90;;;;;;5073738;28;20184;-43
2023/04/04 04:06:26;;;;;;;8.57;2.43;;;-0.40;99.90;;;;;;5074028;28;20220;-51
2023/04/04 04:08:52;;;;;;;8.00;2.30;;;-0.40;99.90;;;;;;5073967;28;20628;-47
2023/04/04 04:11:18;;;;;;;12.80;2.40;;;-0.50;99.90;;;;;;5073602;28;20200;-50
2023/04/04 04:13:43;;;;;;;12.50;2.80;;;-0.50;99.90;;;;;;5055655;28;20193;-48
2023/04/04 04:16:09;;;;;;;14.20;2.50;;;-0.50;99.90;;;;;;5073975;28;20546;-48
2023/04/04 04:18:34;;;;;;;17.07;2.67;;;-0.50;99.90;;;;;;5074118;28;20184;-48
2023/04/04 04:21:02;;;;;;;11.90;2.13;;;-0.50;99.90;;;;;;5074238;28;20193;-50
2023/04/04 04:23:29;;;;;;;10.33;2.63;;;-0.40;99.90;;;;;;5074724;28;20252;-49
2023/04/04 04:25:55;;;;;;;11.63;2.17;;;-0.50;99.90;;;;;;5074322;28;20412;-50
2023/04/04 04:28:22;;;;;;;20.07;2.23;;;-0.50;99.90;;;;;;5074493;28;20899;-51
2023/04/04 04:30:48;;;;;;;11.13;2.77;;;-0.40;99.90;;;;;;5075216;28;20176;-49
2023/04/04 04:33:13;;;;;;;14.10;3.13;;;-0.50;99.90;;;;;;5074849;28;20407;-42
2023/04/04 04:35:39;;;;;;;16.70;2.90;;;-0.60;99.90;;;;;;5074515;28;20213;-50
2023/04/04 04:38:05;;;;;;;11.10;2.27;;;-0.60;99.90;;;;;;5074713;28;20727;-44
2023/04/04 04:40:32;;;;;;;9.50;2.10;;;-0.70;99.90;;;;;;5074972;28;20438;-43
2023/04/04 04:42:57;;;;;;;11.80;2.10;;;-0.80;99.90;;;;;;5074121;28;20194;-48
2023/04/04 04:45:23;;;;;;;10.43;1.93;;;-0.80;99.90;;;;;;5074727;28;20917;-47
2023/04/04 04:47:49;;;;;;;6.20;1.90;;;-0.90;99.90;;;;;;5073730;28;20228;-49
2023/04/04 04:50:16;;;;;;;7.77;2.10;;;-1.00;99.90;;;;;;5073401;28;20647;-48
2023/04/04 04:52:42;;;;;;;7.60;2.20;;;-1.10;99.90;;;;;;5073460;28;20779;-49
2023/04/04 04:55:08;;;;;;;4.50;1.40;;;-1.20;99.90;;;;;;5073247;28;20461;-49
2023/04/04 04:57:34;;;;;;;10.23;2.20;;;-1.20;99.90;;;;;;5073120;28;20920;-49
2023/04/04 05:00:00;;;;;;;6.67;2.17;;;-1.30;99.90;;;;;;5073418;28;20411;-48
2023/04/04 05:02:26;;;;;;;17.47;2.57;;;-1.30;99.90;;;;;;5073091;28;20285;-49
2023/04/04 05:04:52;;;;;;;11.07;2.27;;;-1.40;99.90;;;;;;5073346;28;20204;-48
2023/04/04 05:07:17;;;;;;;10.57;2.30;;;-1.40;99.90;;;;;;5073153;28;20777;-49
2023/04/04 05:09:43;;;;;;;11.40;2.80;;;-1.50;99.90;;;;;;5073050;28;20195;-47
2023/04/04 05:12:08;;;;;;;12.00;2.50;;;-1.50;99.90;;;;;;5073228;28;20204;-48
2023/04/04 05:14:34;;;;;;;18.00;3.10;;;-1.60;99.90;;;;;;5072958;28;20295;-48
2023/04/04 05:17:00;;;;;;;15.67;2.30;;;-1.60;99.90;;;;;;5072889;28;20185;-49
2023/04/04 05:19:26;;;;;;;9.27;2.23;;;-1.60;99.90;;;;;;5073183;28;20470;-49
2023/04/04 05:21:52;;;;;;;14.07;2.47;;;-1.70;99.90;;;;;;5073808;28;20208;-49
2023/04/04 05:24:18;;;;;;;9.93;2.40;;;-1.70;99.90;;;;;;5073437;28;20180;-49
2023/04/04 05:26:44;;;;;;;6.47;2.70;;;-1.70;99.90;;;;;;5073725;28;20427;-48
2023/04/04 05:29:10;;;;;;;8.20;2.33;;;-1.70;99.90;;;;;;5073250;28;20232;-49
2023/04/04 05:31:35;;;;;;;8.97;2.97;;;-1.70;99.90;;;;;;5072936;28;20200;-49
2023/04/04 05:34:06;;;;;;;7.33;2.20;;;-1.70;99.90;;;;;;5073185;28;20203;-49
2023/04/04 05:36:36;;;;;;;6.63;2.40;;;-1.70;99.90;;;;;;5073385;28;20198;-50
2023/04/04 05:39:05;;;;;;;5.97;2.23;;;-1.80;99.90;;;;;;5072968;28;20505;-47
2023/04/04 05:41:31;;;;;;;10.27;2.40;;;-1.80;99.90;;;;;;5073007;28;20520;-48
2023/04/04 05:43:56;;;;;;;9.67;1.90;;;-1.70;99.90;;;;;;5073007;28;20500;-47
2023/04/04 05:46:22;;;;;;;11.13;2.37;;;-1.70;99.90;;;;;;5073518;28;20980;-49
2023/04/04 05:48:49;;;;;;;8.20;2.37;;;-1.80;99.90;;;;;;5076830;28;20195;-48
2023/04/04 05:51:15;;;;;;;9.90;2.50;;;-1.80;99.90;;;;;;5076419;28;20196;-48
2023/04/04 05:53:41;;;;;;;8.53;2.60;;;-1.70;99.90;;;;;;5076375;28;20394;-48
2023/04/04 05:56:07;;;;;;;7.80;2.90;;;-1.70;99.90;;;;;;5076588;28;20451;-46
2023/04/04 05:58:32;;;;;;;19.63;2.90;;;-1.60;99.90;;;;;;5076499;28;20172;-48
2023/04/04 06:00:58;;;;;;;8.57;2.77;;;-1.60;99.90;;;;;;5076315;28;20196;-48
2023/04/04 06:03:24;;;;;;;15.20;3.30;;;-1.50;99.90;;;;;;5076213;28;20177;-49
2023/04/04 06:05:52;;;;;;;15.77;3.80;;;-1.50;99.90;;;;;;5076526;28;20184;-48
2023/04/04 06:08:18;;;;;;;11.83;3.70;;;-1.40;99.90;;;;;;5076130;28;20183;-47
2023/04/04 06:10:43;;;;;;;10.17;3.10;;;-1.30;99.90;;;;;;5075971;28;20417;-48
2023/04/04 06:13:09;;;;;;;14.83;4.13;;;-1.30;99.90;;;;;;5077002;28;20282;-47
2023/04/04 06:15:35;;;;;;;17.07;3.83;;;-1.20;99.90;;;;;;5076220;28;20204;-47
2023/04/04 06:18:00;;;;;;;14.53;3.27;;;-1.10;99.90;;;;;;5076240;28;20224;-46
2023/04/04 06:20:26;;;;;;;9.03;3.23;;;-1.00;99.90;;;;;;5076208;28;20648;-48
2023/04/04 06:22:52;;;;;;;27.43;4.37;;;-0.90;99.90;;;;;;5076618;28;20199;-47
2023/04/04 06:25:18;;;;;;;14.10;3.70;;;-0.80;99.90;;;;;;5076034;28;20184;-47
2023/04/04 06:27:44;;;;;;;12.50;3.30;;;-0.60;99.90;;;;;;5075900;28;20422;-48
2023/04/04 06:30:10;;;;;;;13.67;3.47;;;-0.50;99.90;;;;;;5057911;28;20179;-48
2023/04/04 06:32:36;;;;;;;8.83;3.50;;;-0.30;99.90;;;;;;5075586;28;20225;-49
2023/04/04 06:35:03;;;;;;;15.90;4.03;;;-0.10;99.90;;;;;;5075558;28;20462;-49
2023/04/04 06:37:29;;;;;;;11.67;3.90;;;0.00;99.90;;;;;;5075434;28;20168;-50
2023/04/04 06:39:54;;;;;;;17.93;4.10;;;0.30;99.90;;;;;;5075244;28;20449;-50
2023/04/04 06:42:20;;;;;;;13.63;3.63;;;0.40;99.90;;;;;;5075423;28;20202;-50
2023/04/04 06:44:45;;;;;;;12.20;2.80;;;0.60;99.90;;;;;;5075384;28;20201;-48
2023/04/04 06:47:11;;;;;;;4.80;2.77;;;0.80;99.90;;;;;;5075749;28;20247;-47
2023/04/04 06:49:36;;;;;;;7.27;2.63;;;0.90;99.90;;;;;;5075618;28;20221;-48
2023/04/04 06:52:03;;;;;;;11.13;2.37;;;1.10;99.90;;;;;;5075253;28;20200;-49
2023/04/04 06:54:29;;;;;;;10.17;2.97;;;1.20;99.90;;;;;;5075103;28;20211;-50
2023/04/04 06:56:54;;;;;;;7.10;2.70;;;1.40;99.90;;;;;;5074829;28;20949;-47
2023/04/04 06:59:20;;;;;;;17.27;3.00;;;1.50;99.90;;;;;;5074725;28;20263;-51
2023/04/04 07:01:45;;;;;;;12.87;2.77;;;1.70;99.90;;;;;;5074771;28;20198;-49
2023/04/04 07:04:11;;;;;;;8.87;3.33;;;1.80;99.90;;;;;;5074676;28;20187;-49
2023/04/04 07:06:36;;;;;;;15.30;2.70;;;1.90;99.90;;;;;;5075024;28;20214;-45
2023/04/04 07:09:03;;;;;;;11.03;3.30;;;2.00;99.90;;;;;;5074627;28;20177;-43
2023/04/04 07:11:29;;;;;;;13.53;3.20;;;2.20;99.90;;;;;;5074401;28;20741;-44
2023/04/04 07:13:55;;;;;;;12.50;3.70;;;2.30;99.90;;;;;;5074745;28;20654;-45
2023/04/04 07:16:21;;;;;;;13.50;3.70;;;2.50;99.90;;;;;;5074878;28;20435;-44
2023/04/04 07:18:46;;;;;;;9.03;3.33;;;2.60;99.90;;;;;;5074463;28;20198;-40
2023/04/04 07:21:12;;;;;;;5.70;2.70;;;2.70;99.90;;;;;;5075245;28;20234;-43
2023/04/04 07:23:38;;;;;;;7.87;3.37;;;2.80;99.90;;;;;;5074356;28;20233;-41
2023/04/04 07:26:03;;;;;;;8.57;2.90;;;3.10;99.90;;;;;;5074262;28;20201;-43
2023/04/04 07:28:30;;;;;;;7.67;2.90;;;3.20;99.90;;;;;;5074509;28;20183;-42
2023/04/04 07:30:59;;;;;;;4.80;2.43;;;3.50;99.90;;;;;;5074393;28;20206;-42
2023/04/04 07:33:26;;;;;;;5.17;2.40;;;3.60;99.90;;;;;;5074080;28;20214;-42
2023/04/04 07:35:52;;;;;;;4.10;2.30;;;3.70;99.90;;;;;;5074027;28;20240;-46
2023/04/04 07:38:17;;;;;;;5.70;2.27;;;3.90;99.90;;;;;;5074141;28;20199;-44
2023/04/04 07:40:43;;;;;;;2.87;1.87;;;4.00;99.90;;;;;;5073921;28;20686;-44
2023/04/04 07:43:09;;;;;;;6.07;2.50;;;4.10;99.90;;;;;;5074011;28;20206;-42
2023/04/04 07:45:35;;;;;;;4.77;2.33;;;4.20;99.90;;;;;;5074032;28;20186;-42
2023/04/04 07:48:00;;;;;;;6.87;1.93;;;4.40;99.90;;;;;;5075561;28;20188;-43
2023/04/04 07:50:26;;;;;;;9.10;2.23;;;4.70;99.90;;;;;;5074770;28;20178;-46
2023/04/04 07:52:54;;;;;;;3.63;1.87;;;4.90;99.90;;;;;;5074082;28;20203;-45
2023/04/04 07:55:20;;;;;;;8.33;2.00;;;5.10;99.90;;;;;;5075014;28;20264;-45
2023/04/04 07:57:46;;;;;;;4.77;1.97;;;5.30;99.90;;;;;;5074585;28;20591;-44
2023/04/04 08:00:12;;;;;;;6.23;2.27;;;5.30;99.90;;;;;;5075085;28;20546;-44
2023/04/04 08:02:38;;;;;;;8.00;2.10;;;5.20;99.90;;;;;;5073815;28;20194;-46
2023/04/04 08:05:05;;;;;;;3.77;1.67;;;5.30;99.90;;;;;;5074407;28;20520;-43
2023/04/04 08:07:30;;;;;;;3.83;1.67;;;5.20;99.90;;;;;;5073850;28;20182;-43
2023/04/04 08:09:56;;;;;;;4.53;1.60;;;5.40;99.90;;;;;;5074436;28;20189;-43
2023/04/04 08:12:22;;;;;;;3.63;2.00;;;5.60;99.90;;;;;;5073925;28;20258;-44
2023/04/04 08:14:47;;;;;;;4.90;1.43;;;5.80;99.90;;;;;;5074356;28;20214;-46
2023/04/04 08:17:17;;;;;;;4.33;1.60;;;5.90;99.90;;;;;;5074268;28;20634;-44
2023/04/04 08:19:43;;;;;;;3.73;1.47;;;6.00;99.90;;;;;;5074379;28;20195;-44
2023/04/04 08:22:09;;;;;;;2.77;1.70;;;6.10;99.90;;;;;;5074655;28;20196;-47
2023/04/04 08:24:35;;;;;;;2.43;1.33;;;6.30;99.90;;;;;;5074285;28;20273;-47
2023/04/04 08:27:01;;;;;;;5.20;1.60;;;6.40;99.90;;;;;;5073708;28;20189;-48
2023/04/04 08:29:27;;;;;;;4.27;1.70;;;6.50;99.90;;;;;;5073487;28;20185;-44
2023/04/04 08:31:53;;;;;;;2.40;1.60;;;6.70;99.90;;;;;;5073559;28;20203;-47
2023/04/04 08:34:19;;;;;;;3.47;1.70;;;6.70;99.90;;;;;;5073264;28;20249;-47
2023/04/04 08:36:45;;;;;;;5.03;2.00;;;6.80;99.90;;;;;;5073692;28;20178;-46
2023/04/04 08:39:11;;;;;;;4.23;1.70;;;6.70;99.90;;;;;;5073282;28;20172;-46
2023/04/04 08:41:38;;;;;;;8.33;1.80;;;6.60;99.90;;;;;;5073449;28;20200;-48
2023/04/04 08:44:04;;;;;;;3.33;1.87;;;6.50;99.90;;;;;;5073452;28;20211;-45
2023/04/04 08:46:30;;;;;;;2.07;1.60;;;6.50;99.90;;;;;;5073426;28;20183;-45
2023/04/04 08:48:59;;;;;;;3.33;1.70;;;6.50;99.90;;;;;;5073348;28;20539;-46
2023/04/04 08:51:28;;;;;;;7.40;2.10;;;6.70;99.90;;;;;;5073312;28;20279;-46
2023/04/04 08:53:55;;;;;;;4.63;1.70;;;6.80;99.90;;;;;;5073266;28;20207;-46
2023/04/04 08:56:21;;;;;;;5.60;1.60;;;6.90;99.90;;;;;;5073001;28;20274;-48
2023/04/04 08:58:47;;;;;;;4.50;1.87;;;7.00;99.90;;;;;;5073080;28;20175;-47
2023/04/04 09:01:12;;;;;;;3.07;1.70;;;7.10;99.90;;;;;;5072954;28;20281;-47
2023/04/04 09:03:40;;;;;;;6.83;1.70;;;7.30;99.90;;;;;;5073562;28;20221;-46
2023/04/04 09:06:07;;;;;;;3.30;1.63;;;7.30;99.90;;;;;;5073275;28;20187;-48
2023/04/04 09:08:33;;;;;;;4.80;2.37;;;7.50;99.90;;;;;;5073655;28;20244;-45
2023/04/04 09:11:02;;;;;;;3.57;1.80;;;7.60;99.90;;;;;;5073225;28;20571;-46
2023/04/04 09:13:27;;;;;;;5.07;1.47;;;7.70;99.90;;;;;;5072907;28;20181;-47
2023/04/04 09:15:56;;;;;;;5.43;1.93;;;7.70;99.90;;;;;;5073455;28;20202;-46
2023/04/04 09:18:21;;;;;;;4.00;2.30;;;7.60;99.90;;;;;;5073163;28;20180;-46
2023/04/04 09:20:48;;;;;;;3.17;1.80;;;7.40;99.90;;;;;;5073347;28;20182;-48
2023/04/04 09:23:22;;;;;;;3.97;1.90;;;7.10;99.90;;;;;;5076853;28;20187;-51
2023/04/04 09:25:49;;;;;;;3.67;1.77;;;7.10;99.90;;;;;;5076969;28;20577;-51
2023/04/04 09:28:15;;;;;;;3.63;1.67;;;7.30;99.90;;;;;;5076618;28;20186;-51
2023/04/04 09:30:43;;;;;;;3.47;1.77;;;7.50;99.90;;;;;;5076783;28;20199;-49
2023/04/04 09:33:11;;;;;;;2.53;1.50;;;7.70;99.90;;;;;;5076935;28;20190;-53
2023/04/04 09:35:42;;;;;;;2.20;1.43;;;7.50;99.90;;;;;;5076541;28;20536;-50
2023/04/04 09:38:08;;;;;;;2.93;1.30;;;7.30;99.90;;;;;;5076824;28;20188;-51
2023/04/04 09:40:39;;;;;;;3.70;1.53;;;7.30;99.90;;;;;;5076524;28;20580;-50
2023/04/04 09:43:07;;;;;;;3.70;1.37;;;7.40;99.90;;;;;;5076516;28;20654;-52
2023/04/04 09:45:34;;;;;;;5.37;1.40;;;7.20;99.90;;;;;;5077143;28;20285;-50
2023/04/04 09:48:01;;;;;;;2.13;1.40;;;7.20;99.90;;;;;;5080766;28;20254;-50
2023/04/04 09:50:29;;;;;;;4.00;1.70;;;7.10;99.90;;;;;;5076947;28;20207;-52
2023/04/04 09:52:57;;;;;;;3.63;1.70;;;7.10;99.90;;;;;;5076283;28;20690;-52
2023/04/04 09:55:37;;;;;;;2.77;1.53;;;7.20;99.90;;;;;;5076272;28;20243;-43
2023/04/04 09:58:11;;;;;;;2.17;1.67;;;7.10;99.90;;;;;;5076101;28;20174;-48
2023/04/04 10:00:41;;;;;;;5.30;1.70;;;7.10;99.90;;;;;;5075899;28;20163;-46
2023/04/04 10:03:07;;;;;;;3.53;1.60;;;7.10;99.90;;;;;;5076193;28;20225;-45
2023/04/04 10:05:32;;;;;;;2.50;1.60;;;7.30;99.90;;;;;;5076555;28;20188;-47
2023/04/04 10:07:58;;;;;;;2.33;1.50;;;7.30;99.90;;;;;;5075896;28;20191;-44
2023/04/04 10:10:30;;;;;;;5.10;1.90;;;7.30;99.90;;;;;;5076105;28;20176;-45
2023/04/04 10:12:57;;;;;;;5.60;1.67;;;7.60;99.90;;;;;;5075725;28;20749;-46
2023/04/04 10:15:23;;;;;;;7.40;1.67;;;7.80;99.90;;;;;;5075906;28;20218;-45
2023/04/04 10:17:53;;;;;;;4.90;2.00;;;8.00;99.90;;;;;;5075720;28;20191;-46
2023/04/04 10:20:19;;;;;;;2.73;1.83;;;8.10;99.90;;;;;;5075684;28;20703;-46
2023/04/04 10:22:45;;;;;;;5.90;1.70;;;8.20;99.90;;;;;;5076346;28;20274;-50
2023/04/04 10:25:11;;;;;;;3.43;1.70;;;8.40;99.90;;;;;;5075586;28;20652;-50
2023/04/04 10:27:37;;;;;;;4.27;1.80;;;8.60;99.90;;;;;;5075488;28;20213;-52
2023/04/04 10:30:03;;;;;;;3.37;1.77;;;8.50;99.90;;;;;;5075754;28;20183;-50
2023/04/04 10:33:01;;;;;;;6.03;2.17;;;8.60;99.90;;;;;;5074910;28;20223;-50
2023/04/04 10:35:27;;;;;;;5.97;1.80;;;8.60;99.90;;;;;;5075268;28;20762;-51
2023/04/04 10:37:58;;;;;;;4.20;1.60;;;8.80;99.90;;;;;;5075535;28;20183;-51
2023/04/04 10:40:27;;;;;;;5.73;1.90;;;8.80;99.90;;;;;;5075574;28;20192;-51
2023/04/04 10:42:54;;;;;;;4.30;2.20;;;8.80;99.90;;;;;;5075401;28;20317;-52
2023/04/04 10:45:20;;;;;;;5.17;1.90;;;8.90;99.90;;;;;;5075182;28;20631;-52
2023/04/04 10:47:47;;;;;;;3.97;1.80;;;9.00;99.90;;;;;;5075370;28;20540;-51
2023/04/04 10:50:14;;;;;;;3.00;1.93;;;9.10;99.90;;;;;;5075015;28;20667;-53
2023/04/04 10:52:42;;;;;;;6.67;2.50;;;9.20;99.90;;;;;;5074944;28;20195;-50
2023/04/04 10:55:13;;;;;;;5.90;1.97;;;9.10;99.90;;;;;;5074932;28;20290;-51
2023/04/04 10:57:54;;;;;;;2.43;1.63;;;9.00;99.90;;;;;;5074869;28;20661;-50
2023/04/04 11:00:22;;;;;;;6.30;2.10;;;9.00;99.90;;;;;;5074801;28;20160;-51
2023/04/04 11:02:51;;;;;;;2.90;1.87;;;9.10;99.90;;;;;;5075025;28;20279;-52
2023/04/04 11:05:46;;;;;;;4.57;1.63;;;9.30;99.90;;;;;;5074766;28;20252;-51
2023/04/04 11:08:20;;;;;;;5.53;2.80;;;9.30;99.90;;;;;;5074984;28;20254;-52
2023/04/04 11:10:47;;;;;;;3.77;1.63;;;9.40;99.90;;;;;;5074938;28;20191;-50
2023/04/04 11:13:21;;;;;;;4.03;2.17;;;9.50;99.90;;;;;;5074573;28;20191;-50
2023/04/04 11:16:00;;;;;;;4.50;2.23;;;9.60;99.90;;;;;;5074764;28;20203;-52
2023/04/04 11:18:41;;;;;;;3.67;2.17;;;9.50;99.90;;;;;;5074630;28;20190;-49
2023/04/04 11:21:18;;;;;;;5.07;2.17;;;9.50;99.90;;;;;;5074651;28;20675;-52
2023/04/04 11:23:47;;;;;;;5.90;2.70;;;9.60;99.90;;;;;;5075302;28;20163;-50
2023/04/04 11:26:17;;;;;;;6.10;2.37;;;9.50;99.90;;;;;;5074590;28;20191;-49
2023/04/04 11:28:45;;;;;;;3.87;2.10;;;9.50;99.90;;;;;;5074572;28;20168;-52
2023/04/04 11:31:15;;;;;;;5.73;2.40;;;9.70;99.90;;;;;;5074441;28;20210;-51
2023/04/04 11:34:03;;;;;;;5.13;2.67;;;9.80;99.90;;;;;;5074471;28;20179;-52
2023/04/04 11:36:50;;;;;;;3.47;2.07;;;10.00;99.90;;;;;;5074242;28;20221;-51
2023/04/04 11:39:32;;;;;;;6.83;2.47;;;10.00;99.90;;;;;;5073964;28;20266;-50
2023/04/04 11:42:13;;;;;;;3.00;1.93;;;10.10;99.90;;;;;;5074183;28;20222;-54
2023/04/04 11:44:58;;;;;;;6.23;1.80;;;10.00;99.90;;;;;;5073607;28;20557;-52
2023/04/04 11:47:24;;;;;;;5.37;1.70;;;9.70;99.90;;;;;;5073927;28;20214;-50
2023/04/04 11:49:52;;;;;;;5.60;1.90;;;9.80;99.90;;;;;;5073888;28;20176;-51
2023/04/04 11:52:18;;;;;;;3.23;1.70;;;10.00;99.90;;;;;;5073815;28;20233;-52
2023/04/04 11:54:46;;;;;;;5.70;1.90;;;10.30;99.90;;;;;;5074001;28;20203;-52
2023/04/04 11:57:13;;;;;;;4.33;2.23;;;10.30;99.90;;;;;;5073687;28;20199;-50
2023/04/04 11:59:46;;;;;;;5.17;1.50;;;10.10;99.90;;;;;;5074075;28;20176;-51
2023/04/04 12:02:15;;;;;;;3.20;1.70;;;10.10;99.90;;;;;;5073952;28;20199;-52
2023/04/04 12:04:44;;;;;;;4.57;1.97;;;10.40;99.90;;;;;;5074013;28;20173;-51
2023/04/04 12:07:11;;;;;;;4.77;1.83;;;10.60;99.90;;;;;;5073881;28;20542;-51
2023/04/04 12:09:37;;;;;;;4.40;2.00;;;10.50;99.00;;;;;;5073900;28;20175;-53
2023/04/04 12:12:03;;;;;;;3.53;2.10;;;10.20;98.20;;;;;;5073519;28;20250;-52
2023/04/04 12:14:31;;;;;;;6.00;1.97;;;9.90;97.90;;;;;;5073479;28;20204;-50
2023/04/04 12:16:58;;;;;;;4.27;2.10;;;9.70;99.90;;;;;;5073867;28;20176;-51
2023/04/04 12:19:24;;;;;;;2.50;1.67;;;9.70;99.90;;;;;;5073524;28;20655;-49
2023/04/04 12:21:51;;;;;;;4.77;1.97;;;9.80;99.90;;;;;;5074215;28;20195;-51
2023/04/04 12:24:17;;;;;;;5.50;2.10;;;9.80;99.40;;;;;;5073737;28;20179;-50
2023/04/04 12:26:49;;;;;;;3.93;1.93;;;9.80;99.90;;;;;;5073441;28;20181;-51
2023/04/04 12:29:16;;;;;;;3.10;2.00;;;10.10;99.20;;;;;;5073642;28;20172;-51
2023/04/04 12:31:45;;;;;;;5.33;2.00;;;10.20;99.90;;;;;;5073425;28;20191;-51
2023/04/04 12:34:32;;;;;;;4.97;1.53;;;10.30;99.30;;;;;;5073521;28;20242;-50
2023/04/04 12:36:58;;;;;;;3.93;1.73;;;10.30;99.90;;;;;;5073267;28;20182;-48
2023/04/04 12:39:27;;;;;;;2.43;1.80;;;10.30;99.00;;;;;;5073342;28;20167;-49
2023/04/04 12:42:01;;;;;;;5.87;2.00;;;10.30;99.50;;;;;;5073295;28;20202;-50
2023/04/04 12:44:38;;;;;;;3.67;1.60;;;10.30;97.90;;;;;;5073485;28;20174;-50
2023/04/04 12:47:05;;;;;;;7.47;2.17;;;10.20;97.50;;;;;;5055360;28;20179;-50
2023/04/04 12:49:39;;;;;;;3.53;1.93;;;10.30;96.80;;;;;;5073322;28;20177;-50
2023/04/04 12:52:06;;;;;;;3.63;2.20;;;10.30;96.10;;;;;;5074687;28;20337;-49